Time;durP1;ratioP1;P1;durP2;ratioP2;P2;SDS_P1;SDS_P2;PMS_P1;PMS_P2;Temp;Humidity;BMP_temperature;BMP_pressure;BME280_temperature;BME280_humidity;BME280_pressure;Samples;Min_cycle;Max_cycle;Signal;HPM_P1;HPM_P2
2022/03/21 00:00:38;;;;;;;55.10;26.60;;;;;;;-1.58;41.85;102785.69;129972;1271;96650;-71
2022/03/21 00:03:43;;;;;;;55.50;26.90;;;;;;;-1.60;42.11;102786.40;130175;1270;96921;-71
2022/03/21 00:06:46;;;;;;;59.20;27.80;;;;;;;-1.62;42.15;102782.41;130148;1271;96699;-71
2022/03/21 00:09:49;;;;;;;53.70;26.50;;;;;;;-1.63;42.12;102782.41;130268;1271;97153;-72
2022/03/21 00:12:52;;;;;;;54.60;25.40;;;;;;;-1.69;42.16;102783.33;130284;1270;97871;-72
2022/03/21 00:15:56;;;;;;;55.10;27.10;;;;;;;-1.70;42.27;102783.17;130062;1271;97207;-71
2022/03/21 00:19:02;;;;;;;57.50;26.70;;;;;;;-1.73;42.33;102785.27;130057;1271;96617;-71
2022/03/21 00:22:05;;;;;;;54.00;26.20;;;;;;;-1.75;42.44;102779.02;130143;1271;140139;-71
2022/03/21 00:25:09;;;;;;;54.70;25.40;;;;;;;-1.78;42.40;102775.91;129783;1271;96654;-71
2022/03/21 00:28:12;;;;;;;55.40;26.00;;;;;;;-1.82;42.72;102774.01;129858;1271;96860;-71
2022/03/21 00:31:16;;;;;;;51.00;25.10;;;;;;;-1.87;42.49;102774.39;130214;1271;96659;-71
2022/03/21 00:34:22;;;;;;;52.50;25.80;;;;;;;-1.91;42.53;102775.30;130180;1270;96628;-71
2022/03/21 00:37:26;;;;;;;52.00;25.40;;;;;;;-1.93;42.71;102775.13;130156;1271;96679;-72
2022/03/21 00:40:29;;;;;;;52.40;24.80;;;;;;;-1.98;42.76;102776.21;129894;1271;97808;-70
2022/03/21 00:43:33;;;;;;;54.20;25.50;;;;;;;-2.03;42.97;102776.24;130058;1271;96717;-70
2022/03/21 00:46:36;;;;;;;55.00;25.80;;;;;;;-2.04;42.90;102782.02;129850;1271;96655;-70
2022/03/21 00:49:39;;;;;;;54.50;25.80;;;;;;;-2.05;42.87;102779.92;129982;1271;97478;-71
2022/03/21 00:52:44;;;;;;;50.30;26.00;;;;;;;-2.06;43.04;102776.80;130143;1271;96631;-68
2022/03/21 00:55:48;;;;;;;51.40;24.90;;;;;;;-2.08;42.91;102773.49;130021;1271;96662;-70
2022/03/21 00:58:52;;;;;;;56.20;26.00;;;;;;;-2.10;42.95;102774.72;129969;1271;96706;-71
2022/03/21 01:01:55;;;;;;;52.60;25.30;;;;;;;-2.11;43.25;102775.61;130212;1271;98804;-72
2022/03/21 01:04:58;;;;;;;52.60;25.80;;;;;;;-2.15;43.27;102775.80;130238;1271;96715;-73
2022/03/21 01:08:02;;;;;;;52.80;26.50;;;;;;;-2.15;43.34;102772.14;130253;1271;97454;-72
2022/03/21 01:11:05;;;;;;;56.20;25.10;;;;;;;-2.19;43.29;102767.63;130072;1271;97332;-71
2022/03/21 01:14:07;;;;;;;56.90;26.00;;;;;;;-2.23;43.29;102770.45;129840;1271;97745;-73
2022/03/21 01:17:10;;;;;;;58.20;25.60;;;;;;;-2.27;43.47;102770.98;130166;1271;97839;-71
2022/03/21 01:20:15;;;;;;;53.80;26.00;;;;;;;-2.27;43.60;102772.90;129951;1270;97354;-72
2022/03/21 01:23:17;;;;;;;51.50;25.50;;;;;;;-2.26;43.39;102768.02;130264;1271;96709;-71
2022/03/21 01:26:20;;;;;;;58.00;27.70;;;;;;;-2.29;43.65;102765.59;130049;1270;97406;-70
2022/03/21 01:29:23;;;;;;;59.50;27.70;;;;;;;-2.30;43.73;102769.44;129798;1271;96743;-71
2022/03/21 01:32:26;;;;;;;56.00;26.90;;;;;;;-2.32;43.63;102767.19;129943;1271;97818;-71
2022/03/21 01:35:29;;;;;;;59.40;27.50;;;;;;;-2.33;43.70;102765.45;130257;1271;96654;-74
2022/03/21 01:38:31;;;;;;;61.00;27.60;;;;;;;-2.33;43.94;102767.36;130141;1271;97413;-76
2022/03/21 01:41:34;;;;;;;56.30;26.40;;;;;;;-2.34;43.81;102766.67;130021;1271;97195;-75
2022/03/21 01:44:37;;;;;;;57.00;26.20;;;;;;;-2.39;43.88;102773.48;130118;1271;97672;-74
2022/03/21 01:47:39;;;;;;;60.20;27.40;;;;;;;-2.42;43.90;102772.64;130019;1271;97862;-75
2022/03/21 01:50:43;;;;;;;56.70;26.20;;;;;;;-2.45;43.99;102769.67;130215;1270;96676;-74
2022/03/21 01:57:08;;;;;;;57.60;26.50;;;;;;;-2.48;44.09;102769.19;129994;1271;97895;-74
2022/03/21 02:00:12;;;;;;;60.20;27.10;;;;;;;-2.51;44.22;102765.70;130044;1271;97851;-74
2022/03/21 02:03:19;;;;;;;57.40;27.50;;;;;;;-2.56;44.11;102759.45;130092;1271;96632;-75
2022/03/21 02:06:22;;;;;;;57.50;27.40;;;;;;;-2.58;44.35;102757.20;130075;1271;97528;-73
2022/03/21 02:09:25;;;;;;;57.80;27.90;;;;;;;-2.58;44.24;102760.34;130075;1271;97416;-72
2022/03/21 02:12:28;;;;;;;59.70;27.80;;;;;;;-2.60;44.53;102761.92;130035;1270;97186;-74
2022/03/21 02:15:31;;;;;;;60.30;28.10;;;;;;;-2.63;44.31;102761.94;130209;1271;97823;-75
2022/03/21 02:18:36;;;;;;;64.20;27.70;;;;;;;-2.66;44.54;102769.78;130021;1270;97325;-73
2022/03/21 02:21:52;;;;;;;59.50;27.60;;;;;;;-2.66;44.58;102770.83;130045;1270;97408;-75
2022/03/21 02:25:02;;;;;;;61.20;27.90;;;;;;;-2.66;44.60;102770.66;130194;1271;96652;-73
2022/03/21 02:28:08;;;;;;;64.10;28.90;;;;;;;-2.68;44.64;102772.92;130142;1271;96918;-73
2022/03/21 02:31:12;;;;;;;68.10;28.50;;;;;;;-2.71;44.73;102771.02;130076;1271;96672;-73
2022/03/21 02:34:15;;;;;;;64.40;28.90;;;;;;;-2.72;44.82;102774.16;130053;1271;97703;-72
2022/03/21 02:37:19;;;;;;;62.80;29.40;;;;;;;-2.74;44.84;102774.35;130151;1270;96744;-72
2022/03/21 02:40:23;;;;;;;59.80;27.90;;;;;;;-2.77;44.80;102768.95;130000;1271;96656;-71
2022/03/21 02:43:25;;;;;;;62.30;28.70;;;;;;;-2.79;44.99;102769.14;130244;1271;96676;-73
2022/03/21 02:46:28;;;;;;;61.50;29.20;;;;;;;-2.79;45.06;102768.95;130134;1271;96622;-71
2022/03/21 02:49:31;;;;;;;60.00;28.70;;;;;;;-2.80;45.13;102767.39;129906;1270;97817;-71
2022/03/21 02:52:34;;;;;;;60.50;28.80;;;;;;;-2.84;45.12;102770.20;129934;1270;96646;-74
2022/03/21 02:55:38;;;;;;;66.80;30.30;;;;;;;-2.88;45.30;102765.34;130049;1271;97834;-70
2022/03/21 02:58:41;;;;;;;69.00;29.40;;;;;;;-2.90;45.33;102765.17;129932;1270;96654;-71
2022/03/21 03:01:44;;;;;;;65.50;29.50;;;;;;;-2.91;45.26;102759.77;129985;1271;97703;-73
2022/03/21 03:04:47;;;;;;;59.60;28.10;;;;;;;-2.92;45.23;102756.98;130004;1271;96666;-72
2022/03/21 03:07:50;;;;;;;59.60;28.70;;;;;;;-2.95;45.39;102749.16;130031;1271;97828;-72
2022/03/21 03:10:52;;;;;;;59.60;28.00;;;;;;;-3.01;45.32;102750.56;130023;1270;96741;-71
2022/03/21 03:13:55;;;;;;;61.60;28.60;;;;;;;-3.05;45.54;102749.20;130076;1270;97704;-72
2022/03/21 03:16:58;;;;;;;59.80;27.70;;;;;;;-3.08;45.72;102744.49;130084;1271;97769;-73
2022/03/21 03:20:00;;;;;;;60.30;27.80;;;;;;;-3.08;45.69;102742.41;130082;1270;96741;-72
2022/03/21 03:23:03;;;;;;;59.00;27.70;;;;;;;-3.08;45.70;102744.16;130078;1271;97885;-71
2022/03/21 03:26:06;;;;;;;58.50;27.80;;;;;;;-3.09;45.76;102745.20;130089;1270;98453;-71
2022/03/21 03:29:08;;;;;;;61.60;29.50;;;;;;;-3.10;45.83;102751.30;130053;1271;96605;-72
2022/03/21 03:32:11;;;;;;;59.90;28.60;;;;;;;-3.12;45.76;102749.73;130014;1271;97451;-72
2022/03/21 03:35:14;;;;;;;67.20;29.50;;;;;;;-3.12;45.89;102752.70;130017;1270;97031;-72
2022/03/21 03:38:17;;;;;;;59.70;28.10;;;;;;;-3.15;45.95;102752.02;129780;1270;97419;-71
2022/03/21 03:41:20;;;;;;;60.00;27.40;;;;;;;-3.16;45.98;102756.02;130155;1271;96660;-73
2022/03/21 03:44:25;;;;;;;57.20;27.80;;;;;;;-3.18;45.98;102756.35;130246;1270;96632;-72
2022/03/21 03:47:27;;;;;;;64.50;28.10;;;;;;;-3.20;46.01;102761.42;130131;1270;97416;-72
2022/03/21 03:50:30;;;;;;;64.60;29.10;;;;;;;-3.23;45.85;102761.59;130164;1270;96728;-72
2022/03/21 03:53:33;;;;;;;67.10;30.80;;;;;;;-3.30;46.05;102762.48;130120;1270;97764;-74
2022/03/21 03:56:36;;;;;;;66.90;29.30;;;;;;;-3.33;46.22;102763.35;130191;1270;97435;-72
2022/03/21 03:59:40;;;;;;;66.40;29.30;;;;;;;-3.34;46.45;102759.70;130270;1270;97610;-73
2022/03/21 04:06:04;;;;;;;70.00;31.00;;;;;;;-3.39;46.66;102759.89;130059;1270;97485;-73
2022/03/21 04:09:07;;;;;;;69.10;30.80;;;;;;;-3.39;46.56;102761.80;130119;1270;97538;-71
2022/03/21 04:12:11;;;;;;;70.10;31.70;;;;;;;-3.42;46.54;102758.84;130055;1270;97809;-71
2022/03/21 04:15:14;;;;;;;63.10;30.10;;;;;;;-3.46;46.58;102757.28;130141;1270;96648;-74
2022/03/21 04:18:16;;;;;;;66.10;30.90;;;;;;;-3.49;46.64;102755.89;130071;1271;96622;-71
2022/03/21 04:21:19;;;;;;;68.70;32.40;;;;;;;-3.48;46.66;102754.31;130114;1270;97837;-72
2022/03/21 04:24:22;;;;;;;64.60;29.60;;;;;;;-3.47;46.76;102758.50;130087;1270;96722;-72
2022/03/21 04:27:24;;;;;;;67.60;29.90;;;;;;;-3.54;46.71;102753.11;130221;1270;97726;-71
2022/03/21 04:30:28;;;;;;;67.80;29.70;;;;;;;-3.55;47.26;102751.55;130088;1270;96666;-72
2022/03/21 04:33:31;;;;;;;59.20;28.70;;;;;;;-3.53;47.05;102752.41;130215;1270;97899;-73
2022/03/21 04:36:33;;;;;;;68.50;30.00;;;;;;;-3.51;47.05;102752.75;130247;1270;96632;-72
2022/03/21 04:39:36;;;;;;;63.60;29.50;;;;;;;-3.49;46.98;102752.06;130118;1270;97696;-72
2022/03/21 04:42:40;;;;;;;68.10;30.90;;;;;;;-3.47;47.10;102752.75;130184;1270;97402;-72
2022/03/21 04:45:44;;;;;;;70.80;32.00;;;;;;;-3.48;47.29;102750.84;130008;1270;96679;-71
2022/03/21 04:48:47;;;;;;;65.30;30.50;;;;;;;-3.48;47.21;102755.01;130069;1270;98178;-71
2022/03/21 04:51:50;;;;;;;68.20;30.90;;;;;;;-3.46;47.27;102756.94;130138;1270;96629;-71
2022/03/21 04:54:53;;;;;;;68.40;31.70;;;;;;;-3.42;47.36;102754.49;130216;1270;97430;-73
2022/03/21 04:57:56;;;;;;;65.20;30.50;;;;;;;-3.40;47.31;102752.40;130133;1270;96634;-73
2022/03/21 05:01:00;;;;;;;63.40;30.20;;;;;;;-3.39;47.23;102752.74;130136;1270;97840;-74
2022/03/21 05:04:03;;;;;;;63.20;29.60;;;;;;;-3.40;47.48;102753.62;130213;1269;97698;-74
2022/03/21 05:07:06;;;;;;;62.70;28.40;;;;;;;-3.35;47.52;102755.35;130096;1270;96709;-73
2022/03/21 05:10:10;;;;;;;59.60;29.70;;;;;;;-3.30;47.67;102757.42;130032;1270;97543;-72
2022/03/21 05:13:12;;;;;;;63.10;29.10;;;;;;;-3.27;47.49;102755.52;130208;1270;97328;-72
2022/03/21 05:16:15;;;;;;;61.30;30.10;;;;;;;-3.22;47.53;102760.02;129967;1271;97439;-72
2022/03/21 05:19:18;;;;;;;59.60;28.60;;;;;;;-3.16;47.74;102760.89;130019;1271;96711;-73
2022/03/21 05:22:21;;;;;;;59.80;30.20;;;;;;;-3.09;47.72;102761.40;130003;1271;97834;-72
2022/03/21 05:32:07;;;;;;;59.30;27.30;;;;;;;-2.83;48.06;102764.80;130059;1271;96638;-74
2022/03/21 05:38:31;;;;;;;56.20;26.60;;;;;;;-2.63;48.20;102764.02;130075;1270;96730;-72
2022/03/21 05:41:34;;;;;;;63.70;29.30;;;;;;;-2.52;48.15;102768.51;130079;1270;97853;-73
2022/03/21 05:44:37;;;;;;;54.10;28.00;;;;;;;-2.45;48.34;102767.42;130130;1270;97113;-73
2022/03/21 05:50:57;;;;;;;57.80;27.90;;;;;;;-2.19;48.36;102772.87;130075;1270;97847;-71
2022/03/21 05:54:01;;;;;;;54.30;27.50;;;;;;;-2.06;48.43;102777.15;130388;1270;96676;-71
2022/03/21 05:57:05;;;;;;;54.70;27.50;;;;;;;-1.93;48.47;102777.92;130388;1271;97314;-70
2022/03/21 06:00:23;;;;;;;55.60;28.50;;;;;;;-1.81;48.74;102778.00;130351;1270;97455;-72
2022/03/21 06:03:26;;;;;;;69.30;32.80;;;;;;;-1.72;48.51;102784.58;130161;1270;96649;-72
2022/03/21 06:06:28;;;;;;;64.70;32.10;;;;;;;-1.61;48.73;102785.55;130112;1270;96621;-72
2022/03/21 06:09:31;;;;;;;68.10;31.10;;;;;;;-1.48;48.87;102782.80;130250;1270;96605;-77
2022/03/21 06:12:34;;;;;;;69.70;33.70;;;;;;;-1.40;48.71;102783.61;130362;1270;96654;-69
2022/03/21 06:15:37;;;;;;;87.50;38.00;;;;;;;-1.28;48.97;102786.12;131691;1270;96654;-72
2022/03/21 06:18:40;;;;;;;98.60;41.00;;;;;;;-1.16;49.10;102783.73;130008;1270;96704;-69
2022/03/21 06:21:43;;;;;;;90.20;38.30;;;;;;;-1.07;49.38;102785.03;130135;1270;96709;-70
2022/03/21 06:24:46;;;;;;;98.80;39.60;;;;;;;-1.06;49.38;102783.81;129956;1271;97920;-67
2022/03/21 06:27:48;;;;;;;103.60;43.20;;;;;;;-1.02;49.68;102785.15;129943;1270;97545;-67
2022/03/21 06:30:51;;;;;;;108.50;45.20;;;;;;;-0.88;49.78;102789.73;129992;1270;96673;-67
2022/03/21 06:33:54;;;;;;;98.90;43.50;;;;;;;-0.70;50.28;102791.45;129920;1270;96737;-69
2022/03/21 06:36:57;;;;;;;101.40;47.00;;;;;;;-0.55;50.34;102790.39;129920;1270;97844;-68
2022/03/21 06:40:00;;;;;;;106.60;45.20;;;;;;;-0.35;50.43;102789.79;129922;1270;96622;-70
2022/03/21 06:43:03;;;;;;;88.50;38.80;;;;;;;-0.17;50.15;102787.62;129866;1271;96722;-68
2022/03/21 06:46:06;;;;;;;79.00;37.60;;;;;;;0.02;49.95;102791.36;130018;1270;97491;-70
2022/03/21 06:49:08;;;;;;;75.60;35.60;;;;;;;0.23;50.47;102793.49;129952;1270;97408;-69
2022/03/21 06:52:12;;;;;;;72.60;35.00;;;;;;;0.42;50.19;102793.19;129879;1270;96642;-68
2022/03/21 06:55:14;;;;;;;78.90;39.10;;;;;;;0.66;49.59;102796.83;130032;1270;96651;-69
2022/03/21 06:58:17;;;;;;;78.50;38.80;;;;;;;0.90;49.39;102791.67;130158;1270;96654;-68
2022/03/21 07:01:20;;;;;;;79.50;37.30;;;;;;;1.10;49.21;102787.61;130054;1270;96753;-68
2022/03/21 07:04:23;;;;;;;72.30;34.50;;;;;;;1.29;49.09;102787.40;129959;1270;96725;-68
2022/03/21 07:07:26;;;;;;;68.10;33.00;;;;;;;1.50;49.10;102789.95;129920;1270;96717;-69
2022/03/21 07:10:29;;;;;;;57.60;28.10;;;;;;;1.71;48.85;102789.34;130079;1270;97795;-69
2022/03/21 07:13:32;;;;;;;46.70;25.00;;;;;;;1.91;48.73;102793.63;130099;1270;97719;-70
2022/03/21 07:16:35;;;;;;;46.10;23.30;;;;;;;2.14;48.59;102788.38;129994;1270;96632;-69
2022/03/21 07:19:37;;;;;;;44.00;22.80;;;;;;;2.36;48.43;102789.07;130037;1270;96620;-69
2022/03/21 07:22:40;;;;;;;40.70;22.20;;;;;;;2.54;48.32;102790.38;130233;1270;97674;-71
2022/03/21 07:25:49;;;;;;;40.50;21.40;;;;;;;2.74;48.17;102794.42;130574;1270;110966;-76
2022/03/21 07:28:51;;;;;;;44.70;23.40;;;;;;;2.92;47.99;102792.36;131157;1270;111216;-71
2022/03/21 07:31:54;;;;;;;43.80;23.90;;;;;;;3.08;47.93;102788.95;129808;1270;96635;-70
2022/03/21 07:34:58;;;;;;;48.40;24.00;;;;;;;3.27;47.82;102795.47;129897;1270;96622;-70
2022/03/21 07:38:00;;;;;;;45.10;24.00;;;;;;;3.44;47.89;102790.77;130003;1270;110955;-70
2022/03/21 07:41:05;;;;;;;39.50;20.30;;;;;;;3.62;47.52;102792.52;129932;1270;96648;-69
2022/03/21 07:44:08;;;;;;;33.10;17.50;;;;;;;3.80;47.53;102794.45;130182;1270;111219;-71
2022/03/21 07:47:23;;;;;;;32.20;18.30;;;;;;;3.99;47.17;102795.63;130006;1270;96628;-71
2022/03/21 07:50:27;;;;;;;34.80;19.10;;;;;;;4.16;47.27;102793.67;130113;1270;110990;-70
2022/03/21 07:53:30;;;;;;;34.60;19.30;;;;;;;4.29;47.04;102790.42;130247;1270;111095;-71
2022/03/21 07:56:33;;;;;;;34.00;18.80;;;;;;;4.43;47.08;102789.64;129700;1271;96715;-70
2022/03/21 07:59:36;;;;;;;33.10;18.80;;;;;;;4.59;47.07;102790.15;130030;1271;111057;-72
2022/03/21 08:02:39;;;;;;;29.40;16.60;;;;;;;4.73;46.58;102785.10;130192;1271;97746;-72
2022/03/21 08:05:42;;;;;;;27.00;14.70;;;;;;;4.86;46.47;102781.13;130097;1271;111086;-72
2022/03/21 08:08:47;;;;;;;26.50;13.70;;;;;;;5.00;46.32;102778.69;130036;1271;96711;-70
2022/03/21 08:11:50;;;;;;;26.50;13.80;;;;;;;5.18;46.09;102778.40;129836;1270;110997;-71
2022/03/21 08:14:53;;;;;;;26.60;13.90;;;;;;;5.35;45.94;102778.48;129974;1270;96704;-73
2022/03/21 08:17:57;;;;;;;26.20;14.70;;;;;;;5.46;45.73;102774.15;130165;1270;97818;-71
2022/03/21 08:20:59;;;;;;;26.50;14.30;;;;;;;5.60;45.63;102769.58;130194;1270;110936;-72
2022/03/21 08:24:03;;;;;;;23.90;14.00;;;;;;;5.75;45.51;102773.05;130060;1270;96625;-72
2022/03/21 08:27:06;;;;;;;22.50;13.60;;;;;;;5.88;45.54;102768.83;130141;1270;110944;-71
2022/03/21 08:30:12;;;;;;;27.10;14.00;;;;;;;5.99;45.33;102769.69;130113;1270;96681;-71
2022/03/21 08:33:15;;;;;;;29.30;15.70;;;;;;;6.11;45.16;102768.48;130325;1270;109180;-72
2022/03/21 08:36:18;;;;;;;24.70;12.20;;;;;;;6.26;44.94;102768.39;130208;1270;110981;-72
2022/03/21 08:39:20;;;;;;;25.40;14.20;;;;;;;6.38;44.58;102762.11;130270;1270;96680;-72
2022/03/21 08:42:23;;;;;;;23.40;13.10;;;;;;;6.49;44.21;102764.42;130118;1270;97493;-71
2022/03/21 08:45:26;;;;;;;22.50;12.10;;;;;;;6.63;44.02;102762.27;130069;1270;97047;-72
2022/03/21 08:51:49;;;;;;;18.70;11.50;;;;;;;6.82;43.98;102758.59;130224;1270;111345;-72
2022/03/21 08:54:54;;;;;;;19.00;11.90;;;;;;;6.89;43.49;102752.45;130536;1270;96613;-72
2022/03/21 08:57:57;;;;;;;20.90;11.80;;;;;;;6.97;43.21;102750.68;130089;1270;110968;-72
2022/03/21 09:01:00;;;;;;;19.90;11.50;;;;;;;7.08;42.96;102749.88;130206;1270;96628;-71
2022/03/21 09:04:02;;;;;;;18.80;11.30;;;;;;;7.17;42.97;102748.93;129996;1270;96699;-72
2022/03/21 09:07:05;;;;;;;19.40;10.90;;;;;;;7.27;42.46;102747.75;130026;1269;97049;-72
2022/03/21 09:10:12;;;;;;;19.70;11.10;;;;;;;7.38;42.30;102744.59;130104;1270;96632;-71
2022/03/21 09:13:15;;;;;;;21.90;12.10;;;;;;;7.47;42.77;102744.00;130066;1270;111167;-71
2022/03/21 09:16:18;;;;;;;19.50;11.80;;;;;;;7.55;42.68;102745.73;130159;1270;96706;-72
2022/03/21 09:19:22;;;;;;;19.50;11.60;;;;;;;7.62;41.71;102742.58;130093;1270;96710;-72
2022/03/21 09:22:25;;;;;;;20.80;11.00;;;;;;;7.70;42.12;102741.14;130078;1271;111069;-70
2022/03/21 09:25:28;;;;;;;17.20;10.30;;;;;;;7.78;42.29;102737.22;131990;1257;96581;-71
2022/03/21 09:28:31;;;;;;;18.90;11.20;;;;;;;7.89;41.84;102734.04;130340;1270;96709;-71
2022/03/21 09:31:35;;;;;;;17.00;9.90;;;;;;;8.00;41.83;102732.25;130252;1270;97303;-71
2022/03/21 09:34:39;;;;;;;19.80;11.90;;;;;;;8.07;42.02;102730.48;130404;1270;110175;-71
2022/03/21 09:37:42;;;;;;;28.50;18.00;;;;;;;8.15;41.76;102729.02;130244;1269;110975;-71
2022/03/21 09:40:46;;;;;;;18.80;11.60;;;;;;;8.23;41.64;102727.73;130214;1270;110981;-72
2022/03/21 09:43:50;;;;;;;585.80;396.80;;;;;;;8.31;41.57;102721.70;130279;1270;111163;-70
2022/03/21 09:46:55;;;;;;;150.50;76.10;;;;;;;8.38;41.37;102722.20;130100;1270;109227;-71
2022/03/21 09:49:59;;;;;;;46.60;26.60;;;;;;;8.44;41.32;102718.55;131938;1269;111024;-72
2022/03/21 09:53:02;;;;;;;32.90;17.40;;;;;;;8.50;41.27;102717.38;130220;1270;110944;-71
2022/03/21 09:56:06;;;;;;;28.00;14.30;;;;;;;8.54;40.99;102713.79;130293;1270;110813;-72
2022/03/21 09:59:08;;;;;;;48.70;22.50;;;;;;;8.61;40.71;102710.92;130269;1270;110883;-72
2022/03/21 10:02:18;;;;;;;45.00;20.60;;;;;;;8.69;40.54;102712.30;130160;1270;96620;-72
2022/03/21 10:05:35;;;;;;;22.30;11.70;;;;;;;8.76;39.92;102710.71;130374;1270;111052;-71
2022/03/21 10:08:38;;;;;;;15.60;10.10;;;;;;;8.85;40.35;102708.97;130410;1270;111110;-74
2022/03/21 10:11:48;;;;;;;16.60;9.80;;;;;;;8.92;39.84;102705.25;130292;1270;97824;-72
2022/03/21 10:14:55;;;;;;;15.30;9.70;;;;;;;9.03;39.03;102706.26;130039;1270;110883;-74
2022/03/21 10:18:06;;;;;;;161.00;90.90;;;;;;;9.13;39.51;102699.65;130243;1270;111233;-72
2022/03/21 10:21:14;;;;;;;49.50;31.00;;;;;;;9.21;39.62;102698.52;130286;1270;109549;-74
2022/03/21 10:24:18;;;;;;;20.90;12.80;;;;;;;9.26;39.63;102696.66;130057;1270;111020;-73
2022/03/21 10:27:30;;;;;;;16.40;11.00;;;;;;;9.32;39.15;102691.02;130154;1270;111035;-72
2022/03/21 10:30:41;;;;;;;19.00;12.30;;;;;;;9.35;39.36;102687.96;130192;1270;110821;-74
2022/03/21 10:33:44;;;;;;;16.50;9.60;;;;;;;9.40;39.00;102682.87;130187;1270;110247;-73
2022/03/21 10:37:03;;;;;;;15.40;9.00;;;;;;;9.50;38.77;102682.36;130230;1270;97814;-74
2022/03/21 10:40:17;;;;;;;13.90;9.90;;;;;;;9.57;38.36;102681.92;130213;1270;110429;-74
2022/03/21 10:43:20;;;;;;;16.50;11.00;;;;;;;9.66;38.71;102674.36;130204;1270;111136;-71
2022/03/21 10:46:23;;;;;;;14.50;9.50;;;;;;;9.75;38.15;102671.70;130306;1270;97388;-73
2022/03/21 10:49:31;;;;;;;15.40;9.40;;;;;;;9.78;38.20;102667.78;131412;1270;96839;-72
2022/03/21 10:52:36;;;;;;;18.10;10.10;;;;;;;9.79;38.21;102667.54;131912;1269;111946;-72
2022/03/21 10:55:41;;;;;;;18.20;10.10;;;;;;;9.85;37.95;102661.00;130336;1270;110985;-73
2022/03/21 10:58:45;;;;;;;13.60;9.40;;;;;;;9.93;37.92;102663.70;130316;1270;111164;-73
2022/03/21 11:01:48;;;;;;;15.50;9.50;;;;;;;9.95;38.02;102657.19;130338;1270;111004;-72
2022/03/21 11:04:51;;;;;;;14.60;9.20;;;;;;;9.95;37.45;102653.45;130334;1270;97383;-73
2022/03/21 11:07:54;;;;;;;13.50;9.40;;;;;;;10.00;37.23;102642.33;130336;1269;97328;-73
2022/03/21 11:10:56;;;;;;;17.20;10.50;;;;;;;10.10;37.76;102639.59;130277;1270;97815;-73
2022/03/21 11:13:59;;;;;;;18.60;10.20;;;;;;;10.18;37.66;102629.84;130256;1270;96638;-73
2022/03/21 11:17:05;;;;;;;15.10;9.60;;;;;;;10.24;36.67;102628.11;130362;1270;96716;-74
2022/03/21 11:20:11;;;;;;;15.50;9.80;;;;;;;10.26;36.06;102624.76;130311;1269;111054;-74
2022/03/21 11:23:15;;;;;;;17.00;9.90;;;;;;;10.32;36.96;102623.05;130417;1269;110825;-73
2022/03/21 11:26:31;;;;;;;15.50;9.50;;;;;;;10.34;36.94;102621.48;130355;1271;111142;-74
2022/03/21 11:29:45;;;;;;;15.00;9.90;;;;;;;10.38;36.90;102618.73;130285;1270;111104;-72
2022/03/21 11:32:54;;;;;;;14.40;9.70;;;;;;;10.42;36.75;102613.70;130251;1270;110975;-73
2022/03/21 11:36:02;;;;;;;17.10;10.50;;;;;;;10.46;36.83;102610.98;130267;1270;111130;-73
2022/03/21 11:39:05;;;;;;;15.70;10.00;;;;;;;10.50;36.72;102608.23;130310;1269;111172;-73
2022/03/21 11:42:08;;;;;;;14.80;9.70;;;;;;;10.53;36.49;102602.52;130136;1271;97391;-73
2022/03/21 11:45:25;;;;;;;14.50;9.60;;;;;;;10.53;36.70;102596.83;130245;1270;110966;-73
2022/03/21 11:48:37;;;;;;;17.80;11.00;;;;;;;10.56;36.29;102593.05;130347;1270;110977;-74
2022/03/21 11:51:40;;;;;;;;;;;;;;;10.57;36.10;102588.17;130317;1270;109972;-75
2022/03/21 11:54:44;;;;;;;14.90;10.10;;;;;;;10.61;36.26;102587.23;130259;1269;97096;-74
2022/03/21 11:57:47;;;;;;;15.30;9.90;;;;;;;10.65;36.62;102582.38;130279;1270;110984;-75
2022/03/21 12:01:06;;;;;;;16.40;10.30;;;;;;;10.69;36.20;102573.95;130245;1270;97949;-72
2022/03/21 12:04:30;;;;;;;15.00;9.10;;;;;;;10.74;35.66;102572.89;130339;1270;111029;-75
2022/03/21 12:07:33;;;;;;;14.90;9.40;;;;;;;10.80;35.11;102568.79;130326;1270;110861;-74
2022/03/21 12:10:39;;;;;;;15.80;9.70;;;;;;;10.85;35.14;102557.08;130483;1270;110966;-71
2022/03/21 12:14:08;;;;;;;16.40;10.80;;;;;;;10.96;35.80;102557.27;130284;1270;110279;-73
2022/03/21 12:17:37;;;;;;;12.10;8.30;;;;;;;11.02;35.39;102555.60;130267;1269;111232;-74
2022/03/21 12:20:46;;;;;;;11.90;8.50;;;;;;;11.02;34.83;102549.63;130226;1270;110981;-72
2022/03/21 12:24:11;;;;;;;13.90;8.90;;;;;;;11.01;34.64;102547.69;130247;1270;171881;-71
2022/03/21 12:27:31;;;;;;;13.30;8.30;;;;;;;11.06;33.94;102544.35;130262;1270;111034;-72
2022/03/21 12:30:39;;;;;;;13.90;9.00;;;;;;;11.09;34.46;102537.02;130302;1271;111513;-72
2022/03/21 12:33:41;;;;;;;16.10;8.80;;;;;;;11.13;33.97;102526.27;130347;1270;110910;-74
2022/03/21 12:36:44;;;;;;;12.60;8.50;;;;;;;11.19;34.41;102526.16;130371;1270;96643;-73
2022/03/21 12:39:48;;;;;;;12.40;8.40;;;;;;;11.26;34.63;102524.29;130346;1270;97398;-72
2022/03/21 12:42:51;;;;;;;13.50;9.10;;;;;;;11.26;34.62;102520.39;130303;1270;111174;-73
2022/03/21 12:45:58;;;;;;;13.40;8.70;;;;;;;11.27;34.60;102514.96;130338;1270;96683;-73
2022/03/21 12:49:03;;;;;;;16.10;8.50;;;;;;;11.28;33.83;102508.69;130021;1270;111102;-73
2022/03/21 12:52:06;;;;;;;16.70;9.20;;;;;;;11.31;34.56;102502.39;130103;1270;111009;-73
2022/03/21 12:55:15;;;;;;;14.60;9.80;;;;;;;11.40;34.32;102499.16;130057;1270;111183;-73
2022/03/21 12:58:18;;;;;;;14.30;9.60;;;;;;;11.51;34.42;102496.09;130092;1270;111011;-73
2022/03/21 13:01:21;;;;;;;15.80;9.50;;;;;;;11.57;33.96;102490.16;130018;1270;110962;-74
2022/03/21 13:11:12;;;;;;;18.70;10.20;;;;;;;11.70;34.04;102489.81;130416;1270;110892;-72
2022/03/21 13:14:17;;;;;;;16.70;11.40;;;;;;;11.70;33.63;102485.83;130429;1270;111143;-73
2022/03/21 13:17:20;;;;;;;17.40;11.10;;;;;;;11.78;34.01;102484.25;130283;1269;110761;-73
2022/03/21 13:20:26;;;;;;;15.30;10.60;;;;;;;11.85;33.64;102478.98;130308;1270;96654;-74
2022/03/21 13:23:29;;;;;;;16.60;11.10;;;;;;;11.86;33.55;102480.88;130305;1270;110959;-73
2022/03/21 13:26:32;;;;;;;17.90;11.60;;;;;;;11.88;33.92;102473.61;130295;1269;96650;-72
2022/03/21 13:29:37;;;;;;;16.50;11.30;;;;;;;11.91;33.89;102471.96;130276;1270;97857;-70
2022/03/21 13:32:43;;;;;;;16.90;10.80;;;;;;;11.90;33.41;102468.45;130336;1270;110952;-73
2022/03/21 13:35:52;;;;;;;16.40;10.90;;;;;;;11.92;33.44;102471.15;130143;1269;110921;-74
2022/03/21 13:39:11;;;;;;;16.40;10.90;;;;;;;11.98;33.14;102470.40;130357;1271;109179;-72
2022/03/21 13:42:22;;;;;;;19.20;11.90;;;;;;;12.02;33.03;102466.90;130273;1271;110957;-73
2022/03/21 13:45:27;;;;;;;18.40;11.30;;;;;;;12.01;33.06;102464.14;130286;1270;111019;-72
2022/03/21 13:48:33;;;;;;;18.30;11.30;;;;;;;12.00;33.28;102463.16;130115;1270;111772;-72
2022/03/21 13:51:43;;;;;;;18.80;11.30;;;;;;;12.03;33.01;102465.63;130504;1270;111010;-74
2022/03/21 13:54:51;;;;;;;15.90;11.20;;;;;;;12.06;33.09;102461.33;130213;1271;110995;-74
2022/03/21 13:57:55;;;;;;;16.80;11.10;;;;;;;12.07;33.30;102462.98;130238;1269;110912;-72
2022/03/21 14:00:58;;;;;;;16.90;11.30;;;;;;;12.06;33.23;102461.25;130122;1269;110363;-71
2022/03/21 14:04:00;;;;;;;16.70;10.90;;;;;;;12.06;32.89;102458.94;130204;1270;97812;-71
2022/03/21 14:07:05;;;;;;;16.00;10.70;;;;;;;12.05;33.04;102454.23;130295;1270;96641;-72
2022/03/21 14:10:17;;;;;;;15.50;10.10;;;;;;;12.01;32.74;102452.89;130447;1271;111835;-72
2022/03/21 14:13:23;;;;;;;15.90;10.60;;;;;;;12.00;32.92;102449.24;130258;1270;111405;-72
2022/03/21 14:16:26;;;;;;;16.70;10.90;;;;;;;11.99;33.03;102451.44;130276;1271;111052;-72
2022/03/21 14:19:29;;;;;;;16.90;11.00;;;;;;;12.01;32.89;102448.65;130371;1270;97791;-71